18 Северо-Васюганская

Карта отелей и гостиниц, располагающихся рядом с аэропортом 18 Северо-Васюганская :

18 Северо-Васюганская Томская область 59° 21' 30.42" N, 78° 21' 37.44" E
18 Северо-Васюганская Томская область 59° 21' 30.42" N, 78° 21' 37.44" E
Код аэродрома ИКАО
UNSW
Код аэродрома RU
УНСВ
Координаты
N59.35845° E078.36040°
Превышение над уровнем моря
80
Основная полоса
04/22
Курс магнитный
035,1/215,1
Длина основной ВПП
78
Ширина основной ВПП
20
Покрытие основной ВПП
Твёрдое
Освещение ВПП
Нет
Тип: 
Вертодром
Класс аэродрома: 
Принадлежность: 
ГА
Статус: 
Действующий
Сайт: 
E-mail аэродрома: 
Страна: 
Россия
Регион: 
Томская область
Город: 
Дополнительная информация: 
Оператор: нет данных. PCN 14/R/B/W/U.

Найти трансфер

С помощью этой формы Вы можете найти трансфер из аэропорта 18 Северо-Васюганская в город, аэропорт или вокзал:

Карта места

Javascript is required to view this map.

Погода в аэропортах:

Авиационная погода в Волгограде

Регион: 
Погода METAR: 
URWW 251530Z 14006MPS 5000 BR OVC003 01/M00 Q1022 R06/310050 TEMPO 0300 FG RMK OBST OBSC
Время наблюдения
2021-01-25T15:30:00Z
Температура C
1.0
Точка росы
0.0
Направление ветра
140
Скорость ветра (узлы)
12
Метео видимость
3.11
Явления погоды
BR
Условия полета
LIFR
Аэропорт подробнее: 

Авиационная погода в Нальчике

Регион: 
Погода METAR: 
URMN 251600Z 00000MPS 0500 R24/0650 FZFG VV002 M01/M01 Q1016 R24/110060 NOSIG RMK QBB060 MT OBSC OBST OBSC QFE725
Время наблюдения
2021-01-25T16:00:00Z
Температура C
-1.0
Точка росы
-1.0
Направление ветра
0
Скорость ветра (узлы)
0
Метео видимость
0.31
Явления погоды
FZFG
Условия полета
LIFR
Аэропорт подробнее: 

Авиационная погода в Череповце

Регион: 
Погода METAR: 
ULWC 251530Z 16003MPS 9999 -RA BKN011 OVC016 02/01 Q1009 R21/290366 NOSIG RMK QFE747/0996
Время наблюдения
2021-01-25T15:30:00Z
Температура C
2.0
Точка росы
1.0
Направление ветра
160
Скорость ветра (узлы)
6
Метео видимость
6.21
Явления погоды
-RA
Условия полета
MVFR
Аэропорт подробнее: 

Авиационная погода в аэропорту Международный

Регион: 
Погода METAR: 
UKLL 251530Z 28006MPS 7000 -SHSN BKN005 BKN023CB M00/M01 Q0995 R31/620240 NOSIG
Время наблюдения
2021-01-25T15:30:00Z
Температура C
0.0
Точка росы
-1.0
Направление ветра
280
Скорость ветра (узлы)
12
Метео видимость
4.35
Явления погоды
-SHSN
Условия полета
IFR
Аэропорт подробнее: